sensor_id;sensor_type;location;lat;lon;timestamp;P1;durP1;ratioP1;P2;durP2;ratioP2
26756;SDS011;23848;49.798;10.228;2022-12-29T00:01:38;2.90;;;1.27;;
26756;SDS011;23848;49.798;10.228;2022-12-29T00:04:10;3.75;;;1.90;;
26756;SDS011;23848;49.798;10.228;2022-12-29T00:06:41;3.70;;;1.55;;
26756;SDS011;23848;49.798;10.228;2022-12-29T00:09:10;2.53;;;1.30;;
26756;SDS011;23848;49.798;10.228;2022-12-29T00:11:39;3.65;;;1.67;;
26756;SDS011;23848;49.798;10.228;2022-12-29T00:14:08;2.20;;;1.20;;
26756;SDS011;23848;49.798;10.228;2022-12-29T00:17:00;3.80;;;2.00;;
26756;SDS011;23848;49.798;10.228;2022-12-29T00:19:33;2.40;;;1.50;;
26756;SDS011;23848;49.798;10.228;2022-12-29T00:22:20;2.63;;;1.40;;
26756;SDS011;23848;49.798;10.228;2022-12-29T00:25:09;3.75;;;1.63;;
26756;SDS011;23848;49.798;10.228;2022-12-29T00:27:57;3.47;;;1.67;;
26756;SDS011;23848;49.798;10.228;2022-12-29T00:30:45;4.90;;;1.85;;
26756;SDS011;23848;49.798;10.228;2022-12-29T00:33:35;3.72;;;1.58;;
26756;SDS011;23848;49.798;10.228;2022-12-29T00:36:22;3.47;;;1.40;;
26756;SDS011;23848;49.798;10.228;2022-12-29T00:38:55;2.85;;;1.70;;
26756;SDS011;23848;49.798;10.228;2022-12-29T00:41:44;2.95;;;1.60;;
26756;SDS011;23848;49.798;10.228;2022-12-29T00:44:31;2.67;;;1.50;;
26756;SDS011;23848;49.798;10.228;2022-12-29T00:46:59;2.55;;;1.60;;
26756;SDS011;23848;49.798;10.228;2022-12-29T00:49:32;2.83;;;1.38;;
26756;SDS011;23848;49.798;10.228;2022-12-29T00:52:00;4.28;;;1.52;;
26756;SDS011;23848;49.798;10.228;2022-12-29T00:54:30;3.08;;;1.60;;
26756;SDS011;23848;49.798;10.228;2022-12-29T00:57:02;2.78;;;1.50;;
26756;SDS011;23848;49.798;10.228;2022-12-29T00:59:34;2.47;;;1.42;;
26756;SDS011;23848;49.798;10.228;2022-12-29T01:02:03;4.55;;;1.65;;
26756;SDS011;23848;49.798;10.228;2022-12-29T01:04:34;3.42;;;1.88;;
26756;SDS011;23848;49.798;10.228;2022-12-29T01:07:03;3.42;;;1.67;;
26756;SDS011;23848;49.798;10.228;2022-12-29T01:09:34;3.15;;;1.42;;
26756;SDS011;23848;49.798;10.228;2022-12-29T01:12:20;2.47;;;1.40;;
26756;SDS011;23848;49.798;10.228;2022-12-29T01:15:07;2.53;;;1.60;;
26756;SDS011;23848;49.798;10.228;2022-12-29T01:17:36;2.65;;;1.58;;
26756;SDS011;23848;49.798;10.228;2022-12-29T01:20:09;3.67;;;1.50;;
26756;SDS011;23848;49.798;10.228;2022-12-29T01:22:38;2.97;;;1.52;;
26756;SDS011;23848;49.798;10.228;2022-12-29T01:25:11;3.00;;;1.70;;
26756;SDS011;23848;49.798;10.228;2022-12-29T01:27:43;2.92;;;1.50;;
26756;SDS011;23848;49.798;10.228;2022-12-29T01:30:13;2.78;;;1.38;;
26756;SDS011;23848;49.798;10.228;2022-12-29T01:32:43;2.60;;;1.60;;
26756;SDS011;23848;49.798;10.228;2022-12-29T01:35:13;3.13;;;1.70;;
26756;SDS011;23848;49.798;10.228;2022-12-29T01:37:43;3.28;;;1.70;;
26756;SDS011;23848;49.798;10.228;2022-12-29T01:40:12;3.20;;;1.42;;
26756;SDS011;23848;49.798;10.228;2022-12-29T01:42:43;4.05;;;1.52;;
26756;SDS011;23848;49.798;10.228;2022-12-29T01:45:12;3.22;;;1.58;;
26756;SDS011;23848;49.798;10.228;2022-12-29T01:47:41;2.83;;;1.60;;
26756;SDS011;23848;49.798;10.228;2022-12-29T01:50:11;3.63;;;1.83;;
26756;SDS011;23848;49.798;10.228;2022-12-29T01:52:47;3.63;;;1.60;;
26756;SDS011;23848;49.798;10.228;2022-12-29T01:55:19;2.42;;;1.52;;
26756;SDS011;23848;49.798;10.228;2022-12-29T01:57:48;4.03;;;1.80;;
26756;SDS011;23848;49.798;10.228;2022-12-29T02:00:18;2.45;;;1.55;;
26756;SDS011;23848;49.798;10.228;2022-12-29T02:02:49;2.75;;;1.63;;
26756;SDS011;23848;49.798;10.228;2022-12-29T02:05:21;2.55;;;1.40;;
26756;SDS011;23848;49.798;10.228;2022-12-29T02:07:53;3.33;;;1.80;;
26756;SDS011;23848;49.798;10.228;2022-12-29T02:10:23;2.70;;;1.20;;
26756;SDS011;23848;49.798;10.228;2022-12-29T02:12:53;6.07;;;1.88;;
26756;SDS011;23848;49.798;10.228;2022-12-29T02:15:22;3.60;;;1.70;;
26756;SDS011;23848;49.798;10.228;2022-12-29T02:17:59;3.65;;;1.88;;
26756;SDS011;23848;49.798;10.228;2022-12-29T02:23:27;2.50;;;1.40;;
26756;SDS011;23848;49.798;10.228;2022-12-29T02:26:06;4.70;;;1.50;;
26756;SDS011;23848;49.798;10.228;2022-12-29T02:28:45;4.20;;;1.33;;
26756;SDS011;23848;49.798;10.228;2022-12-29T02:31:22;6.17;;;2.10;;
26756;SDS011;23848;49.798;10.228;2022-12-29T02:33:56;2.50;;;1.50;;
26756;SDS011;23848;49.798;10.228;2022-12-29T02:36:29;3.05;;;1.58;;
26756;SDS011;23848;49.798;10.228;2022-12-29T02:39:02;4.88;;;1.90;;
26756;SDS011;23848;49.798;10.228;2022-12-29T02:41:34;2.63;;;1.45;;
26756;SDS011;23848;49.798;10.228;2022-12-29T02:44:08;6.45;;;1.60;;
26756;SDS011;23848;49.798;10.228;2022-12-29T02:46:47;3.33;;;1.48;;
26756;SDS011;23848;49.798;10.228;2022-12-29T02:49:18;3.38;;;1.65;;
26756;SDS011;23848;49.798;10.228;2022-12-29T02:51:56;3.05;;;1.45;;
26756;SDS011;23848;49.798;10.228;2022-12-29T02:54:30;5.15;;;1.30;;
26756;SDS011;23848;49.798;10.228;2022-12-29T02:57:10;2.13;;;1.38;;
26756;SDS011;23848;49.798;10.228;2022-12-29T02:59:43;3.10;;;1.50;;
26756;SDS011;23848;49.798;10.228;2022-12-29T03:02:37;3.28;;;1.65;;
26756;SDS011;23848;49.798;10.228;2022-12-29T03:05:27;2.78;;;1.60;;
26756;SDS011;23848;49.798;10.228;2022-12-29T03:08:15;2.85;;;1.40;;
26756;SDS011;23848;49.798;10.228;2022-12-29T03:10:59;3.40;;;1.30;;
26756;SDS011;23848;49.798;10.228;2022-12-29T03:13:35;3.58;;;1.38;;
26756;SDS011;23848;49.798;10.228;2022-12-29T03:16:40;3.75;;;1.58;;
26756;SDS011;23848;49.798;10.228;2022-12-29T03:19:32;5.30;;;1.85;;
26756;SDS011;23848;49.798;10.228;2022-12-29T03:22:12;3.10;;;1.48;;
26756;SDS011;23848;49.798;10.228;2022-12-29T03:25:03;3.40;;;1.55;;
26756;SDS011;23848;49.798;10.228;2022-12-29T03:27:40;4.53;;;1.73;;
26756;SDS011;23848;49.798;10.228;2022-12-29T03:30:19;3.47;;;1.90;;
26756;SDS011;23848;49.798;10.228;2022-12-29T03:36:42;6.82;;;1.75;;
26756;SDS011;23848;49.798;10.228;2022-12-29T03:39:41;2.50;;;1.40;;
26756;SDS011;23848;49.798;10.228;2022-12-29T03:42:42;4.68;;;1.67;;
26756;SDS011;23848;49.798;10.228;2022-12-29T03:45:21;5.65;;;1.90;;
26756;SDS011;23848;49.798;10.228;2022-12-29T03:47:59;1.95;;;1.15;;
26756;SDS011;23848;49.798;10.228;2022-12-29T03:53:40;3.42;;;1.30;;
26756;SDS011;23848;49.798;10.228;2022-12-29T03:56:18;3.40;;;1.50;;
26756;SDS011;23848;49.798;10.228;2022-12-29T03:59:01;3.08;;;1.70;;
26756;SDS011;23848;49.798;10.228;2022-12-29T04:01:33;3.47;;;1.30;;
26756;SDS011;23848;49.798;10.228;2022-12-29T04:04:32;4.30;;;1.08;;
26756;SDS011;23848;49.798;10.228;2022-12-29T04:07:11;2.58;;;1.40;;
26756;SDS011;23848;49.798;10.228;2022-12-29T04:09:48;3.78;;;1.30;;
26756;SDS011;23848;49.798;10.228;2022-12-29T04:12:22;3.38;;;1.50;;
26756;SDS011;23848;49.798;10.228;2022-12-29T04:15:12;2.80;;;1.75;;
26756;SDS011;23848;49.798;10.228;2022-12-29T04:17:54;3.30;;;1.40;;
26756;SDS011;23848;49.798;10.228;2022-12-29T04:20:35;3.58;;;1.63;;
26756;SDS011;23848;49.798;10.228;2022-12-29T04:23:33;3.78;;;1.75;;
26756;SDS011;23848;49.798;10.228;2022-12-29T04:26:57;6.10;;;1.83;;
26756;SDS011;23848;49.798;10.228;2022-12-29T04:29:44;3.00;;;1.45;;
26756;SDS011;23848;49.798;10.228;2022-12-29T04:32:20;4.70;;;1.98;;
26756;SDS011;23848;49.798;10.228;2022-12-29T04:34:56;3.33;;;1.33;;
26756;SDS011;23848;49.798;10.228;2022-12-29T04:37:28;4.35;;;2.08;;
26756;SDS011;23848;49.798;10.228;2022-12-29T04:40:01;3.03;;;1.63;;
26756;SDS011;23848;49.798;10.228;2022-12-29T04:42:34;2.95;;;1.48;;
26756;SDS011;23848;49.798;10.228;2022-12-29T04:45:05;2.50;;;1.48;;
26756;SDS011;23848;49.798;10.228;2022-12-29T04:47:38;3.53;;;1.60;;
26756;SDS011;23848;49.798;10.228;2022-12-29T04:50:12;2.88;;;1.40;;
26756;SDS011;23848;49.798;10.228;2022-12-29T04:52:44;4.18;;;1.25;;
26756;SDS011;23848;49.798;10.228;2022-12-29T04:55:16;2.25;;;1.30;;
26756;SDS011;23848;49.798;10.228;2022-12-29T04:57:49;3.47;;;1.42;;
26756;SDS011;23848;49.798;10.228;2022-12-29T05:00:22;3.85;;;1.58;;
26756;SDS011;23848;49.798;10.228;2022-12-29T05:02:56;4.50;;;1.40;;
26756;SDS011;23848;49.798;10.228;2022-12-29T05:05:35;3.78;;;1.48;;
26756;SDS011;23848;49.798;10.228;2022-12-29T05:08:08;3.08;;;1.40;;
26756;SDS011;23848;49.798;10.228;2022-12-29T05:10:54;3.38;;;1.38;;
26756;SDS011;23848;49.798;10.228;2022-12-29T05:13:44;3.22;;;1.33;;
26756;SDS011;23848;49.798;10.228;2022-12-29T05:16:24;4.00;;;1.65;;
26756;SDS011;23848;49.798;10.228;2022-12-29T05:18:59;2.65;;;1.20;;
26756;SDS011;23848;49.798;10.228;2022-12-29T05:21:43;2.92;;;1.33;;
26756;SDS011;23848;49.798;10.228;2022-12-29T05:24:17;3.45;;;1.70;;
26756;SDS011;23848;49.798;10.228;2022-12-29T05:27:04;5.65;;;1.70;;
26756;SDS011;23848;49.798;10.228;2022-12-29T05:30:01;3.65;;;1.77;;
26756;SDS011;23848;49.798;10.228;2022-12-29T05:32:41;2.83;;;1.60;;
26756;SDS011;23848;49.798;10.228;2022-12-29T05:35:14;4.93;;;1.80;;
26756;SDS011;23848;49.798;10.228;2022-12-29T05:37:45;2.90;;;1.48;;
26756;SDS011;23848;49.798;10.228;2022-12-29T05:40:16;3.38;;;1.25;;
26756;SDS011;23848;49.798;10.228;2022-12-29T05:42:45;2.20;;;1.23;;
26756;SDS011;23848;49.798;10.228;2022-12-29T05:45:21;2.50;;;1.35;;
26756;SDS011;23848;49.798;10.228;2022-12-29T05:47:58;2.53;;;1.52;;
26756;SDS011;23848;49.798;10.228;2022-12-29T05:50:35;3.00;;;1.65;;
26756;SDS011;23848;49.798;10.228;2022-12-29T05:53:15;3.92;;;1.60;;
26756;SDS011;23848;49.798;10.228;2022-12-29T05:55:49;3.15;;;1.30;;
26756;SDS011;23848;49.798;10.228;2022-12-29T05:58:27;4.55;;;1.35;;
26756;SDS011;23848;49.798;10.228;2022-12-29T06:01:02;3.17;;;1.50;;
26756;SDS011;23848;49.798;10.228;2022-12-29T06:03:36;3.13;;;1.73;;
26756;SDS011;23848;49.798;10.228;2022-12-29T06:06:14;3.53;;;1.30;;
26756;SDS011;23848;49.798;10.228;2022-12-29T06:08:48;4.47;;;1.48;;
26756;SDS011;23848;49.798;10.228;2022-12-29T06:11:20;3.28;;;1.40;;
26756;SDS011;23848;49.798;10.228;2022-12-29T06:13:56;4.00;;;1.90;;
26756;SDS011;23848;49.798;10.228;2022-12-29T06:16:38;2.80;;;1.50;;
26756;SDS011;23848;49.798;10.228;2022-12-29T06:19:10;3.42;;;1.20;;
26756;SDS011;23848;49.798;10.228;2022-12-29T06:21:40;2.90;;;1.08;;
26756;SDS011;23848;49.798;10.228;2022-12-29T06:24:12;3.00;;;1.52;;
26756;SDS011;23848;49.798;10.228;2022-12-29T06:26:49;5.60;;;2.33;;
26756;SDS011;23848;49.798;10.228;2022-12-29T06:29:19;4.32;;;2.22;;
26756;SDS011;23848;49.798;10.228;2022-12-29T06:31:58;4.10;;;1.60;;
26756;SDS011;23848;49.798;10.228;2022-12-29T06:34:34;3.65;;;2.45;;
26756;SDS011;23848;49.798;10.228;2022-12-29T06:37:07;9.95;;;5.22;;
26756;SDS011;23848;49.798;10.228;2022-12-29T06:39:39;8.75;;;5.10;;
26756;SDS011;23848;49.798;10.228;2022-12-29T06:42:12;6.53;;;4.22;;
26756;SDS011;23848;49.798;10.228;2022-12-29T06:44:44;8.77;;;5.65;;
26756;SDS011;23848;49.798;10.228;2022-12-29T06:47:17;11.65;;;6.00;;
26756;SDS011;23848;49.798;10.228;2022-12-29T06:49:49;8.88;;;6.38;;
26756;SDS011;23848;49.798;10.228;2022-12-29T06:52:24;13.27;;;8.50;;
26756;SDS011;23848;49.798;10.228;2022-12-29T06:55:00;19.90;;;12.50;;
26756;SDS011;23848;49.798;10.228;2022-12-29T06:57:29;16.20;;;11.13;;
26756;SDS011;23848;49.798;10.228;2022-12-29T07:00:11;16.27;;;10.02;;
26756;SDS011;23848;49.798;10.228;2022-12-29T07:02:51;11.70;;;7.85;;
26756;SDS011;23848;49.798;10.228;2022-12-29T07:05:33;13.32;;;7.40;;
26756;SDS011;23848;49.798;10.228;2022-12-29T07:08:07;7.25;;;4.07;;
26756;SDS011;23848;49.798;10.228;2022-12-29T07:10:39;11.70;;;6.80;;
26756;SDS011;23848;49.798;10.228;2022-12-29T07:13:17;11.68;;;6.35;;
26756;SDS011;23848;49.798;10.228;2022-12-29T07:15:51;13.15;;;6.10;;
26756;SDS011;23848;49.798;10.228;2022-12-29T07:18:33;6.95;;;3.13;;
26756;SDS011;23848;49.798;10.228;2022-12-29T07:21:08;10.18;;;5.00;;
26756;SDS011;23848;49.798;10.228;2022-12-29T07:23:44;5.82;;;3.20;;
26756;SDS011;23848;49.798;10.228;2022-12-29T07:26:19;4.25;;;2.60;;
26756;SDS011;23848;49.798;10.228;2022-12-29T07:29:07;3.67;;;2.60;;
26756;SDS011;23848;49.798;10.228;2022-12-29T07:31:40;7.00;;;4.15;;
26756;SDS011;23848;49.798;10.228;2022-12-29T07:34:20;6.22;;;2.97;;
26756;SDS011;23848;49.798;10.228;2022-12-29T07:37:05;4.45;;;2.63;;
26756;SDS011;23848;49.798;10.228;2022-12-29T07:39:50;3.38;;;2.10;;
26756;SDS011;23848;49.798;10.228;2022-12-29T07:42:45;2.88;;;1.67;;
26756;SDS011;23848;49.798;10.228;2022-12-29T07:45:19;3.22;;;1.75;;
26756;SDS011;23848;49.798;10.228;2022-12-29T07:47:52;5.18;;;1.50;;
26756;SDS011;23848;49.798;10.228;2022-12-29T07:50:42;3.08;;;1.50;;
26756;SDS011;23848;49.798;10.228;2022-12-29T07:53:19;4.00;;;1.70;;
26756;SDS011;23848;49.798;10.228;2022-12-29T07:55:55;3.53;;;1.58;;
26756;SDS011;23848;49.798;10.228;2022-12-29T07:58:31;4.40;;;1.40;;
26756;SDS011;23848;49.798;10.228;2022-12-29T08:01:13;2.40;;;1.35;;
26756;SDS011;23848;49.798;10.228;2022-12-29T08:03:53;2.30;;;1.38;;
26756;SDS011;23848;49.798;10.228;2022-12-29T08:06:33;4.20;;;1.48;;
26756;SDS011;23848;49.798;10.228;2022-12-29T08:09:02;2.88;;;1.40;;
26756;SDS011;23848;49.798;10.228;2022-12-29T08:11:45;3.30;;;1.48;;
26756;SDS011;23848;49.798;10.228;2022-12-29T08:14:29;3.42;;;1.58;;
26756;SDS011;23848;49.798;10.228;2022-12-29T08:17:03;2.50;;;1.23;;
26756;SDS011;23848;49.798;10.228;2022-12-29T08:19:33;3.00;;;1.42;;
26756;SDS011;23848;49.798;10.228;2022-12-29T08:22:09;2.78;;;1.27;;
26756;SDS011;23848;49.798;10.228;2022-12-29T08:24:37;3.00;;;1.30;;
26756;SDS011;23848;49.798;10.228;2022-12-29T08:27:06;3.83;;;1.40;;
26756;SDS011;23848;49.798;10.228;2022-12-29T08:29:45;1.77;;;1.10;;
26756;SDS011;23848;49.798;10.228;2022-12-29T08:32:17;4.28;;;1.80;;
26756;SDS011;23848;49.798;10.228;2022-12-29T08:34:45;3.70;;;1.45;;
26756;SDS011;23848;49.798;10.228;2022-12-29T08:37:15;3.60;;;1.33;;
26756;SDS011;23848;49.798;10.228;2022-12-29T08:39:49;3.50;;;1.38;;
26756;SDS011;23848;49.798;10.228;2022-12-29T08:42:21;2.63;;;1.27;;
26756;SDS011;23848;49.798;10.228;2022-12-29T08:44:52;2.65;;;1.30;;
26756;SDS011;23848;49.798;10.228;2022-12-29T08:47:24;2.58;;;1.20;;
26756;SDS011;23848;49.798;10.228;2022-12-29T08:49:53;2.83;;;1.33;;
26756;SDS011;23848;49.798;10.228;2022-12-29T08:52:23;3.15;;;1.40;;
26756;SDS011;23848;49.798;10.228;2022-12-29T08:54:56;3.00;;;1.60;;
26756;SDS011;23848;49.798;10.228;2022-12-29T08:57:24;2.70;;;1.40;;
26756;SDS011;23848;49.798;10.228;2022-12-29T08:59:54;2.80;;;1.45;;
26756;SDS011;23848;49.798;10.228;2022-12-29T09:02:24;2.80;;;1.55;;
26756;SDS011;23848;49.798;10.228;2022-12-29T09:04:53;2.30;;;1.38;;
26756;SDS011;23848;49.798;10.228;2022-12-29T09:07:24;3.25;;;1.60;;
26756;SDS011;23848;49.798;10.228;2022-12-29T09:09:53;2.38;;;1.42;;
26756;SDS011;23848;49.798;10.228;2022-12-29T09:12:21;2.65;;;1.50;;
26756;SDS011;23848;49.798;10.228;2022-12-29T09:14:50;3.00;;;1.33;;
26756;SDS011;23848;49.798;10.228;2022-12-29T09:17:18;3.08;;;1.50;;
26756;SDS011;23848;49.798;10.228;2022-12-29T09:20:07;3.80;;;1.60;;
26756;SDS011;23848;49.798;10.228;2022-12-29T09:22:40;2.40;;;1.25;;
26756;SDS011;23848;49.798;10.228;2022-12-29T09:25:09;3.40;;;1.50;;
26756;SDS011;23848;49.798;10.228;2022-12-29T09:27:38;3.55;;;1.50;;
26756;SDS011;23848;49.798;10.228;2022-12-29T09:30:07;2.90;;;1.52;;
26756;SDS011;23848;49.798;10.228;2022-12-29T09:32:36;2.63;;;1.10;;
26756;SDS011;23848;49.798;10.228;2022-12-29T09:35:10;3.05;;;1.58;;
26756;SDS011;23848;49.798;10.228;2022-12-29T09:37:40;2.10;;;1.33;;
26756;SDS011;23848;49.798;10.228;2022-12-29T09:40:10;3.15;;;1.60;;
26756;SDS011;23848;49.798;10.228;2022-12-29T09:42:45;2.85;;;1.20;;
26756;SDS011;23848;49.798;10.228;2022-12-29T09:45:20;3.17;;;1.38;;
26756;SDS011;23848;49.798;10.228;2022-12-29T09:47:53;3.60;;;1.30;;
26756;SDS011;23848;49.798;10.228;2022-12-29T09:50:22;2.47;;;1.35;;
26756;SDS011;23848;49.798;10.228;2022-12-29T09:52:56;3.00;;;1.52;;
26756;SDS011;23848;49.798;10.228;2022-12-29T09:57:56;3.22;;;1.30;;
26756;SDS011;23848;49.798;10.228;2022-12-29T10:00:27;2.38;;;1.52;;
26756;SDS011;23848;49.798;10.228;2022-12-29T10:02:58;4.70;;;2.35;;
26756;SDS011;23848;49.798;10.228;2022-12-29T10:05:33;3.60;;;1.70;;
26756;SDS011;23848;49.798;10.228;2022-12-29T10:10:50;3.85;;;1.40;;
26756;SDS011;23848;49.798;10.228;2022-12-29T10:13:27;3.65;;;1.50;;
26756;SDS011;23848;49.798;10.228;2022-12-29T10:16:00;3.47;;;1.20;;
26756;SDS011;23848;49.798;10.228;2022-12-29T10:18:43;2.58;;;1.40;;
26756;SDS011;23848;49.798;10.228;2022-12-29T10:21:16;2.88;;;1.40;;
26756;SDS011;23848;49.798;10.228;2022-12-29T10:23:51;3.05;;;1.40;;
26756;SDS011;23848;49.798;10.228;2022-12-29T10:26:22;2.83;;;1.45;;
26756;SDS011;23848;49.798;10.228;2022-12-29T10:29:03;2.60;;;1.42;;
26756;SDS011;23848;49.798;10.228;2022-12-29T10:31:33;3.20;;;1.60;;
26756;SDS011;23848;49.798;10.228;2022-12-29T10:34:05;2.40;;;1.33;;
26756;SDS011;23848;49.798;10.228;2022-12-29T10:36:37;4.43;;;1.30;;
26756;SDS011;23848;49.798;10.228;2022-12-29T10:39:14;3.38;;;1.80;;
26756;SDS011;23848;49.798;10.228;2022-12-29T10:41:48;2.80;;;1.75;;
26756;SDS011;23848;49.798;10.228;2022-12-29T10:44:21;3.15;;;1.40;;
26756;SDS011;23848;49.798;10.228;2022-12-29T10:46:51;2.50;;;1.15;;
26756;SDS011;23848;49.798;10.228;2022-12-29T10:49:22;2.65;;;1.35;;
26756;SDS011;23848;49.798;10.228;2022-12-29T10:51:54;3.05;;;1.67;;
26756;SDS011;23848;49.798;10.228;2022-12-29T10:54:23;4.47;;;1.52;;
26756;SDS011;23848;49.798;10.228;2022-12-29T10:56:56;2.60;;;1.30;;
26756;SDS011;23848;49.798;10.228;2022-12-29T10:59:28;2.60;;;1.30;;
26756;SDS011;23848;49.798;10.228;2022-12-29T11:01:59;3.05;;;1.48;;
26756;SDS011;23848;49.798;10.228;2022-12-29T11:04:33;4.85;;;1.50;;
26756;SDS011;23848;49.798;10.228;2022-12-29T11:07:04;4.85;;;1.60;;
26756;SDS011;23848;49.798;10.228;2022-12-29T11:09:41;4.05;;;1.70;;
26756;SDS011;23848;49.798;10.228;2022-12-29T11:12:21;4.75;;;1.85;;
26756;SDS011;23848;49.798;10.228;2022-12-29T11:15:11;4.32;;;1.50;;
26756;SDS011;23848;49.798;10.228;2022-12-29T11:17:44;2.85;;;1.33;;
26756;SDS011;23848;49.798;10.228;2022-12-29T11:20:19;4.05;;;1.25;;
26756;SDS011;23848;49.798;10.228;2022-12-29T11:22:54;3.03;;;1.33;;
26756;SDS011;23848;49.798;10.228;2022-12-29T11:25:23;3.83;;;1.50;;
26756;SDS011;23848;49.798;10.228;2022-12-29T11:28:15;4.65;;;1.60;;
26756;SDS011;23848;49.798;10.228;2022-12-29T11:30:49;3.33;;;1.90;;
26756;SDS011;23848;49.798;10.228;2022-12-29T11:33:27;4.20;;;1.95;;
26756;SDS011;23848;49.798;10.228;2022-12-29T11:35:58;4.65;;;1.65;;
26756;SDS011;23848;49.798;10.228;2022-12-29T11:38:36;3.80;;;1.95;;
26756;SDS011;23848;49.798;10.228;2022-12-29T11:41:05;3.00;;;1.40;;
26756;SDS011;23848;49.798;10.228;2022-12-29T11:43:38;3.65;;;1.73;;
26756;SDS011;23848;49.798;10.228;2022-12-29T11:46:16;2.75;;;1.50;;
26756;SDS011;23848;49.798;10.228;2022-12-29T11:48:54;2.28;;;1.35;;
26756;SDS011;23848;49.798;10.228;2022-12-29T11:51:33;2.35;;;1.42;;
26756;SDS011;23848;49.798;10.228;2022-12-29T11:54:05;3.40;;;1.25;;
26756;SDS011;23848;49.798;10.228;2022-12-29T11:56:35;2.55;;;1.40;;
26756;SDS011;23848;49.798;10.228;2022-12-29T12:01:58;3.15;;;1.52;;
26756;SDS011;23848;49.798;10.228;2022-12-29T12:04:28;4.43;;;1.55;;
26756;SDS011;23848;49.798;10.228;2022-12-29T12:10:26;3.97;;;1.60;;
26756;SDS011;23848;49.798;10.228;2022-12-29T12:13:02;3.70;;;1.45;;
26756;SDS011;23848;49.798;10.228;2022-12-29T12:15:52;3.50;;;1.40;;
26756;SDS011;23848;49.798;10.228;2022-12-29T12:18:34;4.03;;;1.60;;
26756;SDS011;23848;49.798;10.228;2022-12-29T12:21:14;2.38;;;1.23;;
26756;SDS011;23848;49.798;10.228;2022-12-29T12:23:51;2.97;;;1.35;;
26756;SDS011;23848;49.798;10.228;2022-12-29T12:26:28;3.13;;;1.40;;
26756;SDS011;23848;49.798;10.228;2022-12-29T12:29:00;2.70;;;1.52;;
26756;SDS011;23848;49.798;10.228;2022-12-29T12:31:40;2.17;;;1.00;;
26756;SDS011;23848;49.798;10.228;2022-12-29T12:34:17;3.75;;;1.25;;
26756;SDS011;23848;49.798;10.228;2022-12-29T12:36:53;2.85;;;1.20;;
26756;SDS011;23848;49.798;10.228;2022-12-29T12:39:26;2.95;;;1.17;;
26756;SDS011;23848;49.798;10.228;2022-12-29T12:42:03;2.75;;;1.05;;
26756;SDS011;23848;49.798;10.228;2022-12-29T12:44:42;2.28;;;1.15;;
26756;SDS011;23848;49.798;10.228;2022-12-29T12:47:24;2.25;;;0.90;;
26756;SDS011;23848;49.798;10.228;2022-12-29T12:50:10;2.78;;;1.00;;
26756;SDS011;23848;49.798;10.228;2022-12-29T12:52:53;2.35;;;1.08;;
26756;SDS011;23848;49.798;10.228;2022-12-29T12:55:37;2.17;;;1.10;;
26756;SDS011;23848;49.798;10.228;2022-12-29T12:58:20;1.85;;;0.98;;
26756;SDS011;23848;49.798;10.228;2022-12-29T13:04:00;2.60;;;1.15;;
26756;SDS011;23848;49.798;10.228;2022-12-29T13:06:45;2.95;;;1.20;;
26756;SDS011;23848;49.798;10.228;2022-12-29T13:09:30;4.82;;;1.27;;
26756;SDS011;23848;49.798;10.228;2022-12-29T13:12:24;2.47;;;1.10;;
26756;SDS011;23848;49.798;10.228;2022-12-29T13:15:08;2.38;;;1.40;;
26756;SDS011;23848;49.798;10.228;2022-12-29T13:17:57;3.90;;;1.10;;
26756;SDS011;23848;49.798;10.228;2022-12-29T13:20:53;5.28;;;1.88;;
26756;SDS011;23848;49.798;10.228;2022-12-29T13:24:20;2.20;;;1.13;;
26756;SDS011;23848;49.798;10.228;2022-12-29T13:29:40;2.92;;;1.40;;
26756;SDS011;23848;49.798;10.228;2022-12-29T13:32:51;3.10;;;1.17;;
26756;SDS011;23848;49.798;10.228;2022-12-29T13:45:38;2.28;;;1.15;;
26756;SDS011;23848;49.798;10.228;2022-12-29T13:48:14;2.28;;;1.08;;
26756;SDS011;23848;49.798;10.228;2022-12-29T13:50:52;5.50;;;2.30;;
26756;SDS011;23848;49.798;10.228;2022-12-29T13:53:29;3.05;;;0.98;;
26756;SDS011;23848;49.798;10.228;2022-12-29T13:56:12;2.58;;;1.10;;
26756;SDS011;23848;49.798;10.228;2022-12-29T14:01:28;2.47;;;1.10;;
26756;SDS011;23848;49.798;10.228;2022-12-29T14:02:50;4.75;;;1.30;;
26756;SDS011;23848;49.798;10.228;2022-12-29T14:05:32;8.50;;;3.17;;
26756;SDS011;23848;49.798;10.228;2022-12-29T14:08:01;8.82;;;2.80;;
26756;SDS011;23848;49.798;10.228;2022-12-29T14:10:36;2.13;;;0.80;;
26756;SDS011;23848;49.798;10.228;2022-12-29T14:13:10;2.92;;;0.90;;
26756;SDS011;23848;49.798;10.228;2022-12-29T14:15:50;1.90;;;1.02;;
26756;SDS011;23848;49.798;10.228;2022-12-29T14:18:21;2.25;;;0.95;;
26756;SDS011;23848;49.798;10.228;2022-12-29T14:20:52;2.28;;;0.82;;
26756;SDS011;23848;49.798;10.228;2022-12-29T14:23:27;3.10;;;1.27;;
26756;SDS011;23848;49.798;10.228;2022-12-29T14:26:10;1.80;;;0.80;;
26756;SDS011;23848;49.798;10.228;2022-12-29T14:28:42;1.55;;;0.82;;
26756;SDS011;23848;49.798;10.228;2022-12-29T14:36:53;2.15;;;1.00;;
26756;SDS011;23848;49.798;10.228;2022-12-29T14:39:32;2.50;;;1.50;;
26756;SDS011;23848;49.798;10.228;2022-12-29T14:42:03;3.80;;;2.67;;
26756;SDS011;23848;49.798;10.228;2022-12-29T14:44:38;3.00;;;1.40;;
26756;SDS011;23848;49.798;10.228;2022-12-29T14:47:16;2.53;;;1.13;;
26756;SDS011;23848;49.798;10.228;2022-12-29T14:49:51;3.60;;;1.67;;
26756;SDS011;23848;49.798;10.228;2022-12-29T14:52:47;2.65;;;1.38;;
26756;SDS011;23848;49.798;10.228;2022-12-29T15:00:46;2.88;;;1.52;;
26756;SDS011;23848;49.798;10.228;2022-12-29T15:03:43;5.57;;;1.33;;
26756;SDS011;23848;49.798;10.228;2022-12-29T15:06:43;2.22;;;1.08;;
26756;SDS011;23848;49.798;10.228;2022-12-29T15:09:26;3.08;;;1.30;;
26756;SDS011;23848;49.798;10.228;2022-12-29T15:12:26;2.92;;;1.05;;
26756;SDS011;23848;49.798;10.228;2022-12-29T15:15:22;4.40;;;1.35;;
26756;SDS011;23848;49.798;10.228;2022-12-29T15:18:22;2.50;;;1.10;;
26756;SDS011;23848;49.798;10.228;2022-12-29T15:21:11;2.13;;;1.25;;
26756;SDS011;23848;49.798;10.228;2022-12-29T15:23:53;3.50;;;1.30;;
26756;SDS011;23848;49.798;10.228;2022-12-29T15:26:48;3.97;;;1.73;;
26756;SDS011;23848;49.798;10.228;2022-12-29T15:29:28;2.58;;;1.08;;
26756;SDS011;23848;49.798;10.228;2022-12-29T15:34:52;2.65;;;1.30;;
26756;SDS011;23848;49.798;10.228;2022-12-29T16:08:59;6.25;;;1.33;;
26756;SDS011;23848;49.798;10.228;2022-12-29T16:12:13;1.63;;;0.90;;
26756;SDS011;23848;49.798;10.228;2022-12-29T16:14:53;2.15;;;1.20;;
26756;SDS011;23848;49.798;10.228;2022-12-29T16:18:10;3.90;;;2.00;;
